Time;durP1;ratioP1;P1;durP2;ratioP2;P2;SDS_P1;SDS_P2;PMS_P1;PMS_P2;Temp;Humidity;BMP_temperature;BMP_pressure;BME280_temperature;BME280_humidity;BME280_pressure;Samples;Min_cycle;Max_cycle;Signal;HPM_P1;HPM_P2
2021/12/16 00:01:52;;;;;;;32.63;18.25;;;6.40;99.90;;;;;;5096964;28;20388;-60
2021/12/16 00:10:20;;;;;;;30.90;17.35;;;6.40;99.90;;;;;;5068055;28;20036;-60
2021/12/16 00:34:23;;;;;;;29.67;15.30;;;6.60;99.90;;;;;;5074927;28;20062;-57
2021/12/16 00:36:50;;;;;;;33.35;18.40;;;6.70;99.90;;;;;;5083906;28;20043;-58
2021/12/16 00:39:20;;;;;;;34.58;17.58;;;6.60;99.90;;;;;;5076667;28;20036;-57
2021/12/16 00:41:50;;;;;;;33.05;17.15;;;6.60;99.90;;;;;;5079294;28;20067;-59
2021/12/16 00:55:14;;;;;;;33.10;15.90;;;6.60;99.90;;;;;;5073474;28;20036;-60
2021/12/16 00:57:42;;;;;;;35.65;17.27;;;6.60;99.90;;;;;;5078871;28;20556;-60
2021/12/16 01:00:12;;;;;;;27.90;15.40;;;6.60;99.90;;;;;;5075695;28;20044;-59
2021/12/16 01:05:43;;;;;;;39.40;18.60;;;6.60;99.90;;;;;;5074431;28;20031;-59
2021/12/16 01:35:36;;;;;;;23.23;11.30;;;6.60;99.90;;;;;;5069258;28;20116;-58
2021/12/16 01:49:12;;;;;;;17.17;9.02;;;6.60;99.90;;;;;;5012132;28;20822;-60
2021/12/16 01:56:50;;;;;;;19.92;9.65;;;6.50;99.90;;;;;;5078006;28;20086;-59
2021/12/16 01:59:20;;;;;;;19.55;8.68;;;6.60;99.90;;;;;;5069957;28;20110;-59
2021/12/16 02:01:46;;;;;;;20.17;8.68;;;6.60;99.90;;;;;;5061045;28;20091;-58
2021/12/16 02:04:26;;;;;;;18.42;9.20;;;6.60;99.90;;;;;;5065933;28;20036;-58
2021/12/16 02:09:35;;;;;;;17.65;8.95;;;6.60;99.90;;;;;;5072702;28;20036;-59
2021/12/16 02:12:46;;;;;;;26.50;9.93;;;6.70;99.90;;;;;;5078353;28;20845;-57
2021/12/16 02:34:14;;;;;;;18.98;7.95;;;6.50;99.90;;;;;;5082679;28;20098;-61
2021/12/16 02:36:41;;;;;;;15.00;7.30;;;6.50;99.90;;;;;;5069945;28;20039;-56
2021/12/16 02:39:18;;;;;;;18.48;9.18;;;6.50;99.90;;;;;;5078530;28;20068;-59
2021/12/16 02:41:46;;;;;;;14.00;7.35;;;6.50;99.90;;;;;;5074463;28;20035;-57
2021/12/16 02:49:35;;;;;;;20.85;10.05;;;6.50;99.90;;;;;;5070909;28;20064;-56
2021/12/16 02:52:01;;;;;;;17.23;8.45;;;6.50;99.90;;;;;;5080211;28;20400;-61
2021/12/16 02:54:27;;;;;;;18.52;7.82;;;6.50;99.90;;;;;;5070522;28;20416;-60
2021/12/16 02:56:55;;;;;;;17.02;7.55;;;6.60;99.90;;;;;;5080136;28;20040;-59
2021/12/16 02:59:26;;;;;;;21.42;10.43;;;6.50;99.90;;;;;;5068463;28;20028;-55
2021/12/16 03:01:54;;;;;;;20.92;10.25;;;6.60;99.90;;;;;;5077854;28;20123;-57
2021/12/16 03:04:24;;;;;;;26.85;10.73;;;6.50;99.90;;;;;;5071323;28;20037;-57
2021/12/16 03:06:52;;;;;;;24.73;11.05;;;6.60;99.90;;;;;;5080763;28;20048;-55
2021/12/16 03:09:28;;;;;;;21.88;11.30;;;6.50;99.90;;;;;;5076751;28;20052;-60
2021/12/16 03:12:34;;;;;;;22.00;11.55;;;6.50;99.90;;;;;;5069559;28;20032;-58
2021/12/16 03:14:55;;;;;;;27.88;12.32;;;6.50;99.90;;;;;;5068829;28;20075;-57
2021/12/16 03:17:29;;;;;;;27.20;12.60;;;6.50;99.90;;;;;;5078335;28;20078;-57
2021/12/16 03:20:09;;;;;;;26.25;13.27;;;6.50;99.90;;;;;;5070811;28;20037;-57
2021/12/16 03:25:48;;;;;;;32.70;13.77;;;6.40;99.90;;;;;;5032397;28;20051;-58
2021/12/16 03:28:19;;;;;;;27.67;12.32;;;6.40;99.90;;;;;;5067580;28;20033;-56
2021/12/16 03:38:30;;;;;;;29.58;11.93;;;6.40;99.90;;;;;;5083242;28;19981;-58
2021/12/16 03:40:56;;;;;;;22.90;12.07;;;6.30;99.90;;;;;;5074370;28;20508;-59
2021/12/16 03:43:22;;;;;;;24.92;11.45;;;6.30;99.90;;;;;;5076271;28;20036;-57
2021/12/16 03:48:45;;;;;;;30.27;12.73;;;6.30;99.90;;;;;;5073989;28;20120;-60
2021/12/16 03:51:17;;;;;;;27.17;13.40;;;6.20;99.90;;;;;;5070587;28;20032;-55
2021/12/16 03:53:46;;;;;;;32.85;14.38;;;6.20;99.90;;;;;;5075830;28;20121;-58
2021/12/16 03:56:12;;;;;;;25.35;12.77;;;6.20;99.90;;;;;;5074921;28;20046;-59
2021/12/16 03:58:39;;;;;;;29.55;13.63;;;6.10;99.90;;;;;;5074535;28;20041;-57
2021/12/16 04:01:09;;;;;;;30.45;14.07;;;6.10;99.90;;;;;;5076025;28;20028;-59
2021/12/16 04:03:35;;;;;;;24.48;12.98;;;6.10;99.90;;;;;;5080278;28;20496;-57
2021/12/16 04:06:01;;;;;;;31.33;13.57;;;6.10;99.90;;;;;;5078214;28;20146;-61
2021/12/16 04:08:26;;;;;;;27.08;14.15;;;6.00;99.90;;;;;;5087613;28;20062;-56
2021/12/16 04:11:19;;;;;;;31.02;14.13;;;6.00;99.90;;;;;;5076286;28;20451;-59
2021/12/16 04:14:19;;;;;;;31.13;13.48;;;5.90;99.90;;;;;;5077082;28;20051;-61
2021/12/16 04:17:00;;;;;;;30.70;12.82;;;5.80;99.90;;;;;;5076716;28;20423;-60
2021/12/16 04:19:27;;;;;;;30.05;12.90;;;5.70;99.90;;;;;;5069146;28;20051;-58
2021/12/16 04:21:57;;;;;;;26.83;11.57;;;5.70;99.90;;;;;;5074825;28;20040;-58
2021/12/16 04:24:23;;;;;;;25.83;12.30;;;5.60;99.90;;;;;;5077536;28;20083;-58
2021/12/16 04:26:51;;;;;;;33.42;13.38;;;5.50;99.90;;;;;;5083228;28;20567;-59
2021/12/16 04:29:18;;;;;;;28.48;12.15;;;5.40;99.90;;;;;;5074213;28;20123;-60
2021/12/16 04:31:44;;;;;;;30.23;12.73;;;5.40;99.90;;;;;;5077775;28;20571;-59
2021/12/16 04:34:10;;;;;;;29.35;12.80;;;5.40;99.90;;;;;;5073758;28;20045;-60
2021/12/16 04:36:36;;;;;;;28.10;12.77;;;5.30;99.90;;;;;;5082014;28;20044;-57
2021/12/16 04:39:06;;;;;;;25.02;11.00;;;5.40;99.90;;;;;;5080752;28;20086;-58
2021/12/16 04:41:32;;;;;;;30.40;12.63;;;5.30;99.90;;;;;;5077452;28;20656;-59
2021/12/16 04:43:58;;;;;;;28.20;12.00;;;5.20;99.90;;;;;;5078560;28;20439;-60
2021/12/16 04:46:30;;;;;;;26.65;11.40;;;5.20;99.90;;;;;;5079539;28;20044;-60
2021/12/16 04:48:59;;;;;;;20.58;9.90;;;5.20;99.90;;;;;;5074708;28;20037;-59
2021/12/16 04:51:27;;;;;;;21.23;11.15;;;5.10;99.90;;;;;;5080291;28;20488;-60
2021/12/16 04:53:53;;;;;;;25.08;11.85;;;5.10;99.90;;;;;;5074274;28;20119;-59
2021/12/16 04:56:19;;;;;;;22.08;10.73;;;5.10;99.90;;;;;;5079685;28;20074;-59
2021/12/16 04:58:48;;;;;;;27.27;11.98;;;5.00;99.90;;;;;;5073100;28;20040;-58
2021/12/16 05:01:14;;;;;;;20.85;9.98;;;5.00;99.90;;;;;;5075986;28;20062;-59
2021/12/16 05:03:41;;;;;;;21.10;9.68;;;5.00;99.90;;;;;;5072432;28;20063;-59
2021/12/16 05:06:08;;;;;;;25.02;10.40;;;5.00;99.90;;;;;;5075581;28;20123;-58
2021/12/16 05:08:34;;;;;;;21.77;9.50;;;4.90;99.90;;;;;;5084600;28;20755;-57
2021/12/16 05:11:03;;;;;;;25.70;9.82;;;4.90;99.90;;;;;;5074312;28;20075;-59
2021/12/16 05:13:30;;;;;;;23.77;10.15;;;4.90;99.90;;;;;;5072833;28;20052;-59
2021/12/16 05:16:00;;;;;;;21.00;9.95;;;4.90;99.90;;;;;;5069166;28;20481;-59
2021/12/16 05:18:31;;;;;;;20.63;9.93;;;4.90;99.90;;;;;;5077742;28;20500;-59
2021/12/16 05:20:59;;;;;;;26.83;10.20;;;4.80;99.90;;;;;;5074053;28;20047;-58
2021/12/16 05:28:40;;;;;;;25.88;10.30;;;4.70;99.90;;;;;;5076855;28;20129;-59
2021/12/16 05:31:06;;;;;;;24.75;10.60;;;4.70;99.90;;;;;;5075519;28;20032;-60
2021/12/16 05:33:32;;;;;;;22.83;10.18;;;4.70;99.90;;;;;;5077415;28;20044;-60
2021/12/16 05:35:58;;;;;;;21.52;8.93;;;4.60;99.90;;;;;;5073501;28;20036;-58
2021/12/16 05:38:26;;;;;;;22.05;10.05;;;4.60;99.90;;;;;;5072098;28;20048;-59
2021/12/16 05:40:52;;;;;;;23.55;9.52;;;4.60;99.90;;;;;;5073762;28;20041;-59
2021/12/16 05:43:22;;;;;;;23.60;10.57;;;4.50;99.90;;;;;;5077521;28;20031;-59
2021/12/16 05:45:49;;;;;;;22.58;10.52;;;4.50;99.90;;;;;;5072423;28;20128;-57
2021/12/16 05:48:19;;;;;;;27.65;10.02;;;4.60;99.90;;;;;;5078784;28;20040;-59
2021/12/16 05:50:49;;;;;;;27.00;9.85;;;4.70;99.90;;;;;;5071116;28;20048;-58
2021/12/16 05:53:16;;;;;;;38.88;14.95;;;4.80;99.90;;;;;;5075001;28;20059;-61
2021/12/16 05:55:42;;;;;;;33.20;13.65;;;4.90;99.90;;;;;;5068670;28;20055;-57
2021/12/16 05:58:09;;;;;;;34.13;13.55;;;4.90;99.90;;;;;;5077041;28;20390;-59
2021/12/16 06:00:39;;;;;;;26.20;13.02;;;4.90;99.90;;;;;;5070300;28;20552;-61
2021/12/16 06:03:06;;;;;;;30.40;12.52;;;5.00;99.90;;;;;;5078525;28;20119;-58
2021/12/16 06:05:31;;;;;;;34.05;15.52;;;5.00;99.90;;;;;;5072152;28;20066;-62
2021/12/16 06:07:59;;;;;;;35.13;14.93;;;5.00;99.90;;;;;;5085123;28;20066;-59
2021/12/16 06:10:59;;;;;;;32.85;13.93;;;5.10;99.90;;;;;;5073554;28;20079;-60
2021/12/16 06:13:12;;;;;;;40.15;15.23;;;5.20;99.90;;;;;;5058081;28;20557;-58
2021/12/16 06:27:36;;;;;;;32.90;16.25;;;5.50;99.90;;;;;;5067353;28;20070;-60
2021/12/16 06:29:31;;;;;;;51.20;18.67;;;5.60;99.90;;;;;;5054109;28;20052;-58
2021/12/16 06:31:57;;;;;;;38.20;17.55;;;5.60;99.90;;;;;;5068377;28;20127;-59
2021/12/16 06:34:23;;;;;;;42.50;18.35;;;5.60;99.90;;;;;;5066714;28;20124;-58
2021/12/16 06:36:48;;;;;;;39.10;15.32;;;5.70;99.90;;;;;;5068998;28;20087;-60
2021/12/16 06:39:14;;;;;;;36.03;15.18;;;5.70;99.90;;;;;;5066360;28;20044;-60
2021/12/16 06:41:40;;;;;;;;;;;5.70;99.90;;;;;;5065804;28;20565;-61
2021/12/16 06:44:15;;;;;;;36.90;16.55;;;5.70;99.90;;;;;;5065149;28;20323;-59
2021/12/16 06:46:44;;;;;;;52.70;18.33;;;5.70;99.90;;;;;;5059799;28;20068;-60
2021/12/16 06:49:12;;;;;;;41.72;17.38;;;5.70;99.90;;;;;;5063527;28;20040;-59
2021/12/16 06:51:52;;;;;;;32.95;14.63;;;5.70;99.90;;;;;;5064466;28;20094;-61
2021/12/16 06:54:34;;;;;;;31.60;15.77;;;5.80;99.90;;;;;;5061680;28;20064;-60
2021/12/16 06:59:51;;;;;;;32.60;16.10;;;5.90;99.90;;;;;;5062313;28;20032;-60
2021/12/16 07:02:34;;;;;;;;;;;5.90;99.90;;;;;;5062578;28;20028;-60
2021/12/16 07:05:00;;;;;;;38.55;14.70;;;5.90;99.90;;;;;;5069812;28;20054;-60
2021/12/16 07:07:25;;;;;;;35.70;15.77;;;5.90;99.90;;;;;;5068771;28;20119;-60
2021/12/16 07:09:51;;;;;;;37.95;16.02;;;5.90;99.90;;;;;;5067421;28;20039;-59
2021/12/16 07:12:24;;;;;;;34.80;16.13;;;5.90;99.90;;;;;;5070732;28;20040;-58
2021/12/16 07:14:50;;;;;;;34.45;16.20;;;6.00;99.90;;;;;;5070189;28;20036;-60
2021/12/16 07:17:17;;;;;;;31.17;14.55;;;6.00;99.90;;;;;;5079505;28;20040;-60
2021/12/16 07:19:45;;;;;;;39.42;16.48;;;6.00;99.90;;;;;;5070662;28;20124;-60
2021/12/16 07:22:12;;;;;;;44.33;17.33;;;6.10;99.90;;;;;;5066756;28;20039;-60
2021/12/16 07:24:38;;;;;;;35.45;16.30;;;6.10;99.90;;;;;;5069952;28;20033;-59
2021/12/16 07:27:06;;;;;;;38.63;15.75;;;6.10;99.90;;;;;;5066439;28;20517;-60
2021/12/16 07:29:32;;;;;;;37.88;15.45;;;6.20;99.90;;;;;;5067893;28;20558;-64
2021/12/16 07:31:59;;;;;;;31.33;13.55;;;6.20;99.90;;;;;;5066303;28;20037;-59
2021/12/16 07:34:25;;;;;;;34.22;15.30;;;6.30;99.90;;;;;;5064624;28;20049;-57
2021/12/16 07:36:51;;;;;;;37.58;16.48;;;6.30;99.90;;;;;;5071103;28;20041;-59
2021/12/16 07:39:18;;;;;;;41.00;17.48;;;6.30;99.90;;;;;;5065411;28;20349;-59
2021/12/16 07:41:47;;;;;;;43.78;18.45;;;6.30;99.90;;;;;;5078260;28;20495;-60
2021/12/16 07:44:14;;;;;;;42.85;18.55;;;6.30;99.90;;;;;;5061517;28;20100;-61
2021/12/16 07:46:45;;;;;;;48.92;18.80;;;6.40;99.90;;;;;;5080869;28;20784;-57
2021/12/16 07:49:17;;;;;;;41.05;18.77;;;6.40;99.90;;;;;;5067735;28;20107;-61
2021/12/16 07:51:43;;;;;;;53.25;20.75;;;6.30;99.90;;;;;;5080275;28;20058;-61
2021/12/16 07:54:11;;;;;;;44.88;20.85;;;6.40;99.90;;;;;;5074085;28;20028;-60
2021/12/16 07:56:37;;;;;;;47.80;20.00;;;6.40;99.90;;;;;;5082557;28;20040;-61
2021/12/16 07:59:05;;;;;;;49.17;21.50;;;6.40;99.90;;;;;;5073286;28;20171;-61
2021/12/16 08:01:31;;;;;;;51.25;20.05;;;6.30;99.90;;;;;;5080871;28;20039;-60
2021/12/16 08:03:58;;;;;;;53.17;20.70;;;6.30;99.90;;;;;;5075860;28;20094;-61
2021/12/16 08:06:27;;;;;;;52.47;20.70;;;6.30;99.90;;;;;;5081547;28;20033;-61
2021/12/16 08:08:57;;;;;;;45.03;19.13;;;6.40;99.90;;;;;;5083922;28;20051;-60
2021/12/16 08:11:27;;;;;;;49.83;19.13;;;6.40;99.90;;;;;;5079133;28;20621;-60
2021/12/16 08:13:52;;;;;;;53.05;19.58;;;6.50;99.90;;;;;;5076414;28;20111;-59
2021/12/16 08:16:22;;;;;;;41.63;17.33;;;6.40;99.90;;;;;;5078718;28;20120;-59
2021/12/16 08:18:49;;;;;;;37.80;16.95;;;6.40;99.90;;;;;;5076465;28;20043;-60
2021/12/16 08:21:15;;;;;;;43.03;18.33;;;6.40;99.90;;;;;;5078564;28;20036;-60
2021/12/16 08:23:41;;;;;;;40.35;17.30;;;6.40;99.90;;;;;;5076633;28;20393;-59
2021/12/16 08:26:06;;;;;;;45.90;17.50;;;6.40;99.90;;;;;;5081040;28;20040;-60
2021/12/16 08:28:33;;;;;;;;;;;6.40;99.90;;;;;;5078707;28;20048;-60
2021/12/16 08:30:58;;;;;;;44.40;18.80;;;6.40;99.90;;;;;;5079583;28;19921;-60
2021/12/16 08:33:24;;;;;;;43.42;18.80;;;6.50;99.90;;;;;;5078439;28;20063;-62
2021/12/16 08:35:52;;;;;;;37.97;17.90;;;6.50;99.90;;;;;;5077332;28;20040;-59
2021/12/16 08:38:21;;;;;;;32.40;15.82;;;6.50;99.90;;;;;;5071974;28;20047;-60
2021/12/16 08:40:51;;;;;;;36.50;15.18;;;6.50;99.90;;;;;;5071462;28;20071;-58
2021/12/16 08:43:17;;;;;;;42.22;15.95;;;6.50;99.90;;;;;;5076936;28;20028;-59
2021/12/16 08:45:44;;;;;;;28.02;13.48;;;6.50;99.90;;;;;;5076018;28;20044;-57
2021/12/16 08:48:11;;;;;;;40.75;17.15;;;6.50;99.90;;;;;;5079246;28;20046;-60
2021/12/16 08:50:41;;;;;;;50.65;21.92;;;6.50;99.90;;;;;;5072522;28;20062;-60
2021/12/16 08:53:08;;;;;;;31.27;15.20;;;6.50;99.90;;;;;;5078881;28;20044;-60
2021/12/16 08:55:36;;;;;;;29.23;13.18;;;6.60;99.90;;;;;;5076747;28;20039;-61
2021/12/16 08:58:04;;;;;;;32.95;15.40;;;6.60;99.90;;;;;;5075910;28;20036;-60
2021/12/16 09:00:35;;;;;;;44.10;19.15;;;6.60;99.90;;;;;;5073488;28;20028;-61
2021/12/16 09:03:02;;;;;;;53.08;25.90;;;6.60;99.90;;;;;;5075377;28;20029;-60
2021/12/16 09:05:28;;;;;;;53.78;23.25;;;6.60;99.90;;;;;;5070906;28;20094;-61
2021/12/16 09:07:55;;;;;;;43.45;19.95;;;6.60;99.90;;;;;;5075924;28;20044;-61
2021/12/16 09:10:28;;;;;;;36.78;17.58;;;6.70;99.90;;;;;;5078576;28;20040;-62
2021/12/16 09:13:05;;;;;;;35.10;16.98;;;6.70;99.90;;;;;;5074577;28;20037;-61
2021/12/16 09:15:49;;;;;;;41.13;15.60;;;6.70;99.90;;;;;;5078132;28;20031;-62
2021/12/16 09:18:19;;;;;;;35.45;15.50;;;6.70;99.90;;;;;;5069093;28;20039;-60
2021/12/16 09:20:45;;;;;;;42.10;16.38;;;6.70;99.90;;;;;;5075838;28;20047;-61
2021/12/16 09:23:12;;;;;;;30.90;14.65;;;6.70;99.90;;;;;;5076151;28;20040;-58
2021/12/16 09:25:40;;;;;;;33.80;15.30;;;6.70;99.90;;;;;;5076009;28;20040;-59
2021/12/16 09:28:06;;;;;;;32.25;14.68;;;6.80;99.90;;;;;;5077248;28;20036;-62
2021/12/16 09:30:34;;;;;;;28.20;13.13;;;6.80;99.90;;;;;;5075238;28;20411;-59
2021/12/16 09:33:01;;;;;;;30.48;14.40;;;6.90;99.90;;;;;;5078445;28;20036;-61
2021/12/16 09:35:32;;;;;;;34.05;14.07;;;6.90;99.90;;;;;;5078782;28;20516;-60
2021/12/16 09:38:00;;;;;;;31.10;13.63;;;7.00;99.90;;;;;;5079954;28;20816;-59
2021/12/16 09:40:29;;;;;;;26.73;12.55;;;7.00;99.90;;;;;;5073909;28;20044;-59
2021/12/16 09:42:57;;;;;;;26.25;11.32;;;7.00;99.90;;;;;;5077863;28;20040;-62
2021/12/16 09:45:23;;;;;;;27.42;12.20;;;7.00;99.90;;;;;;5078104;28;20498;-61
2021/12/16 09:47:51;;;;;;;21.67;10.63;;;7.00;99.90;;;;;;5077635;28;20047;-61
2021/12/16 09:50:23;;;;;;;24.83;11.23;;;7.10;99.90;;;;;;5078767;28;20085;-61
2021/12/16 09:52:49;;;;;;;24.85;11.35;;;7.10;99.90;;;;;;5073899;28;20090;-61
2021/12/16 09:55:14;;;;;;;24.77;11.07;;;7.10;99.90;;;;;;5077992;28;20067;-60
2021/12/16 09:57:40;;;;;;;;;;;7.10;99.90;;;;;;5077572;28;20094;-62
2021/12/16 10:00:10;;;;;;;22.52;10.55;;;7.20;99.90;;;;;;5074484;28;19919;-62
2021/12/16 10:02:36;;;;;;;19.88;9.40;;;7.20;99.90;;;;;;5071998;28;20044;-61
2021/12/16 10:05:03;;;;;;;;;;;7.30;99.90;;;;;;5073694;28;20044;-61
2021/12/16 10:07:33;;;;;;;;;;;7.30;99.90;;;;;;5077710;28;19931;-61
2021/12/16 10:09:59;;;;;;;16.50;8.50;;;7.30;99.90;;;;;;5073479;28;19923;-61
2021/12/16 10:12:31;;;;;;;23.48;10.77;;;7.30;99.90;;;;;;5073929;28;20079;-61
2021/12/16 10:17:28;;;;;;;23.83;12.13;;;7.30;99.90;;;;;;5081198;28;20165;-56
2021/12/16 10:19:56;;;;;;;22.15;10.43;;;7.30;99.90;;;;;;5075501;28;20042;-56
2021/12/16 10:22:33;;;;;;;21.48;10.48;;;7.30;99.90;;;;;;5079414;28;20090;-57
2021/12/16 10:25:25;;;;;;;23.30;10.85;;;7.30;99.90;;;;;;5076950;28;20446;-58
2021/12/16 10:28:08;;;;;;;21.48;10.40;;;7.20;99.90;;;;;;5069181;28;20508;-55
2021/12/16 10:31:21;;;;;;;19.75;9.48;;;7.30;99.90;;;;;;5074262;28;20044;-56
2021/12/16 10:33:55;;;;;;;21.10;9.75;;;7.30;99.90;;;;;;4978477;28;20066;-58
2021/12/16 10:36:35;;;;;;;21.23;10.57;;;7.30;99.90;;;;;;5052872;28;20743;-56
2021/12/16 10:39:09;;;;;;;29.88;12.05;;;7.30;99.90;;;;;;5069918;28;20101;-60
2021/12/16 10:41:41;;;;;;;20.98;10.70;;;7.30;99.90;;;;;;5070093;28;20036;-58
2021/12/16 10:44:20;;;;;;;28.60;11.30;;;7.30;99.90;;;;;;5067051;28;20044;-57
2021/12/16 10:47:13;;;;;;;25.85;13.18;;;7.40;99.90;;;;;;5075312;28;20719;-59
2021/12/16 10:49:43;;;;;;;21.52;10.82;;;7.30;99.90;;;;;;5075475;28;20037;-59
2021/12/16 10:52:26;;;;;;;31.25;15.32;;;7.40;99.90;;;;;;5079600;28;20064;-57
2021/12/16 10:54:53;;;;;;;23.58;12.63;;;7.40;99.90;;;;;;5073821;28;20519;-58
2021/12/16 10:57:22;;;;;;;25.23;11.70;;;7.50;99.90;;;;;;5078010;28;20424;-61
2021/12/16 10:59:55;;;;;;;32.47;17.42;;;7.50;99.90;;;;;;5071409;28;20048;-60
2021/12/16 11:02:30;;;;;;;27.73;14.35;;;7.60;99.90;;;;;;5074419;28;20052;-61
2021/12/16 11:05:10;;;;;;;68.15;32.67;;;7.60;99.90;;;;;;5071002;28;20579;-58
2021/12/16 11:07:41;;;;;;;33.03;16.02;;;7.70;99.90;;;;;;5077301;28;20055;-59
2021/12/16 11:10:31;;;;;;;31.15;15.45;;;7.70;99.90;;;;;;5070812;28;20052;-59
2021/12/16 11:13:02;;;;;;;22.42;11.77;;;7.70;99.90;;;;;;5073650;28;20036;-59
2021/12/16 11:15:36;;;;;;;22.88;11.02;;;7.70;99.90;;;;;;5072883;28;20048;-61
2021/12/16 11:18:20;;;;;;;22.02;11.18;;;7.70;99.90;;;;;;5076825;28;20079;-53
2021/12/16 11:21:15;;;;;;;24.52;12.27;;;7.70;99.90;;;;;;5073391;28;20036;-54
2021/12/16 11:23:43;;;;;;;24.05;11.82;;;7.70;99.90;;;;;;5052498;28;20048;-59
2021/12/16 11:26:14;;;;;;;26.17;12.05;;;7.70;99.90;;;;;;5077426;28;20825;-57
2021/12/16 11:28:44;;;;;;;142.27;16.38;;;7.70;99.90;;;;;;5063842;28;20045;-61
2021/12/16 11:31:13;;;;;;;25.55;11.63;;;7.60;99.90;;;;;;5070612;28;20036;-59
2021/12/16 11:33:42;;;;;;;30.73;12.32;;;7.60;99.90;;;;;;5075023;28;20036;-57
2021/12/16 11:36:23;;;;;;;31.17;13.18;;;7.70;99.90;;;;;;5072426;28;20048;-58
2021/12/16 11:38:50;;;;;;;24.90;12.20;;;7.80;99.90;;;;;;5074520;28;21081;-57
2021/12/16 11:41:18;;;;;;;37.00;17.08;;;7.70;99.90;;;;;;5070269;28;20402;-55
2021/12/16 11:43:44;;;;;;;24.98;12.80;;;7.70;99.90;;;;;;5070856;28;20500;-59
2021/12/16 11:46:29;;;;;;;;;;;7.60;99.90;;;;;;5083253;28;20043;-57
2021/12/16 11:49:01;;;;;;;27.23;11.20;;;7.50;99.90;;;;;;5078207;28;19917;-55
2021/12/16 11:51:39;;;;;;;31.30;14.38;;;7.60;99.90;;;;;;5073349;28;20048;-57
2021/12/16 11:54:19;;;;;;;31.42;12.55;;;7.40;99.90;;;;;;5072383;28;20036;-58
2021/12/16 11:56:48;;;;;;;29.55;14.85;;;7.40;99.90;;;;;;5074754;28;20043;-57
2021/12/16 11:59:30;;;;;;;32.78;13.38;;;7.40;99.90;;;;;;5062418;28;20047;-56
2021/12/16 12:01:57;;;;;;;34.40;13.93;;;7.30;99.90;;;;;;5075813;28;20083;-59
2021/12/16 12:04:30;;;;;;;35.70;15.05;;;7.30;99.90;;;;;;5073068;28;20039;-58
2021/12/16 12:06:56;;;;;;;31.30;14.85;;;7.30;99.90;;;;;;5078366;28;20408;-59
2021/12/16 12:09:32;;;;;;;;;;;7.30;99.90;;;;;;5080707;28;20048;-53
2021/12/16 12:11:58;;;;;;;33.28;14.00;;;7.30;99.90;;;;;;5076148;28;19916;-53
2021/12/16 12:14:30;;;;;;;;;;;7.40;99.90;;;;;;5063287;28;20748;-58
2021/12/16 12:17:04;;;;;;;37.85;14.35;;;7.40;99.90;;;;;;5074642;28;20022;-60
2021/12/16 12:19:29;;;;;;;48.88;15.75;;;7.40;99.90;;;;;;5075913;28;20044;-59
2021/12/16 12:21:56;;;;;;;;;;;7.30;99.90;;;;;;5080184;28;20039;-59
2021/12/16 12:24:31;;;;;;;37.75;15.45;;;7.30;99.90;;;;;;5077670;28;19920;-56
2021/12/16 12:27:01;;;;;;;49.13;17.67;;;7.20;99.90;;;;;;5084088;28;20533;-58
2021/12/16 12:29:34;;;;;;;54.35;16.35;;;7.20;99.90;;;;;;5077374;28;20051;-59
2021/12/16 12:32:08;;;;;;;64.07;17.83;;;7.10;99.90;;;;;;5075838;28;20856;-59
2021/12/16 12:34:37;;;;;;;48.25;15.57;;;7.10;99.90;;;;;;5077942;28;20040;-57
2021/12/16 12:37:06;;;;;;;56.03;15.55;;;7.00;99.90;;;;;;5076514;28;20049;-59
2021/12/16 12:39:37;;;;;;;50.33;18.02;;;7.10;99.90;;;;;;5077074;28;20083;-59
2021/12/16 12:42:06;;;;;;;48.22;16.17;;;7.10;99.90;;;;;;5080433;28;20036;-57
2021/12/16 12:44:32;;;;;;;35.65;14.23;;;7.00;99.90;;;;;;5072451;28;20070;-59
2021/12/16 12:47:02;;;;;;;37.63;14.23;;;7.00;99.90;;;;;;5079100;28;20047;-59
2021/12/16 12:49:30;;;;;;;33.85;13.55;;;7.00;99.90;;;;;;5074276;28;20758;-58
2021/12/16 12:52:15;;;;;;;41.25;15.57;;;7.10;99.90;;;;;;5080508;28;20048;-59
2021/12/16 12:54:46;;;;;;;33.80;15.38;;;7.20;99.90;;;;;;5067937;28;20051;-59
2021/12/16 12:57:30;;;;;;;42.22;15.48;;;7.20;99.90;;;;;;5068356;28;20080;-59
2021/12/16 12:59:57;;;;;;;38.58;15.63;;;7.20;99.90;;;;;;5074987;28;20576;-56
2021/12/16 13:02:28;;;;;;;42.20;16.52;;;7.20;99.90;;;;;;5075329;28;20072;-58
2021/12/16 13:05:19;;;;;;;41.75;15.93;;;7.20;99.90;;;;;;5074796;28;20447;-59
2021/12/16 13:08:00;;;;;;;49.50;24.00;;;7.30;99.90;;;;;;5078285;28;20054;-56
2021/12/16 13:10:29;;;;;;;55.80;25.75;;;7.30;99.90;;;;;;5078934;28;20102;-58
2021/12/16 13:16:16;;;;;;;39.47;18.30;;;7.50;99.90;;;;;;5075624;28;20028;-57
2021/12/16 13:25:20;;;;;;;35.58;14.40;;;7.70;99.90;;;;;;5067776;28;20063;-57
2021/12/16 13:27:43;;;;;;;29.13;13.73;;;7.70;99.90;;;;;;5074898;28;20131;-59
2021/12/16 13:32:49;;;;;;;27.83;13.48;;;7.70;99.90;;;;;;5077028;28;20044;-59
2021/12/16 13:37:56;;;;;;;23.83;11.68;;;7.80;99.90;;;;;;5079937;28;20282;-58
2021/12/16 13:40:32;;;;;;;26.15;11.57;;;7.80;99.90;;;;;;5074251;28;20094;-60
2021/12/16 13:43:03;;;;;;;26.70;11.05;;;7.80;99.90;;;;;;5078271;28;20619;-60
2021/12/16 13:45:35;;;;;;;22.30;10.65;;;7.80;99.90;;;;;;5077931;28;20411;-60
2021/12/16 14:01:51;;;;;;;24.30;11.10;;;7.80;99.90;;;;;;5068040;28;20041;-61
2021/12/16 14:05:18;;;;;;;19.97;10.30;;;7.80;99.90;;;;;;5071258;28;20032;-56
2021/12/16 14:07:53;;;;;;;23.00;9.77;;;7.80;99.90;;;;;;5076489;28;20306;-60
2021/12/16 14:10:28;;;;;;;19.17;9.40;;;7.80;99.90;;;;;;5072759;28;20040;-60
2021/12/16 14:24:59;;;;;;;19.75;9.05;;;7.80;99.90;;;;;;5068160;28;20063;-60
2021/12/16 14:42:01;;;;;;;18.30;8.63;;;7.90;99.90;;;;;;5059760;28;20036;-61
2021/12/16 14:47:29;;;;;;;20.52;9.57;;;8.00;99.90;;;;;;5076343;28;20076;-60
2021/12/16 14:49:56;;;;;;;12.55;6.75;;;7.90;99.90;;;;;;5068105;28;20170;-59
2021/12/16 14:52:31;;;;;;;13.00;6.47;;;7.80;99.90;;;;;;5074203;28;20049;-60
2021/12/16 14:55:03;;;;;;;13.75;5.72;;;7.80;99.90;;;;;;5070892;28;20114;-60
2021/12/16 14:57:37;;;;;;;14.98;6.75;;;7.80;99.90;;;;;;5072380;28;20044;-61
2021/12/16 15:00:30;;;;;;;11.05;6.30;;;7.80;99.90;;;;;;5070963;28;20041;-59
2021/12/16 15:03:04;;;;;;;15.25;5.60;;;7.80;99.90;;;;;;5077457;28;20086;-60
2021/12/16 15:05:35;;;;;;;12.98;6.15;;;7.80;99.90;;;;;;5075468;28;20047;-59
2021/12/16 15:08:16;;;;;;;11.55;5.80;;;7.80;99.90;;;;;;5075329;28;20047;-59
2021/12/16 15:10:43;;;;;;;13.38;5.63;;;7.80;99.90;;;;;;5072830;28;20055;-60
2021/12/16 15:13:16;;;;;;;10.98;5.43;;;7.90;99.90;;;;;;5077143;28;20055;-60
2021/12/16 15:43:01;;;;;;;21.10;12.02;;;7.60;99.90;;;;;;5077506;28;20033;-60
2021/12/16 15:45:31;;;;;;;312.13;162.32;;;7.60;99.90;;;;;;5078462;28;20040;-58
2021/12/16 15:48:02;;;;;;;69.32;33.40;;;7.60;99.90;;;;;;5077642;28;20055;-60
2021/12/16 15:50:36;;;;;;;15.82;7.75;;;7.60;99.90;;;;;;5079369;28;20059;-60
2021/12/16 15:53:06;;;;;;;11.65;5.57;;;7.60;99.90;;;;;;5077748;28;20040;-59
2021/12/16 15:55:35;;;;;;;12.88;6.15;;;7.50;99.90;;;;;;5080719;28;20560;-58
2021/12/16 15:58:07;;;;;;;9.38;5.03;;;7.50;99.90;;;;;;5080529;28;20416;-59
2021/12/16 16:00:33;;;;;;;14.93;5.60;;;7.50;99.90;;;;;;5077379;28;20531;-59
2021/12/16 16:03:00;;;;;;;10.32;5.90;;;7.50;99.90;;;;;;5079281;28;20044;-59
2021/12/16 16:05:35;;;;;;;10.65;5.70;;;7.60;99.90;;;;;;5079532;28;20101;-56
2021/12/16 16:08:04;;;;;;;9.52;5.30;;;7.50;99.90;;;;;;5086526;28;20127;-58
2021/12/16 16:10:29;;;;;;;11.93;6.05;;;7.60;99.90;;;;;;5077977;28;20046;-60
2021/12/16 16:13:04;;;;;;;;;;;7.60;99.90;;;;;;5077813;28;20115;-60
2021/12/16 16:15:30;;;;;;;14.40;7.38;;;7.60;99.90;;;;;;5074703;28;19916;-60
2021/12/16 16:18:13;;;;;;;;;;;7.60;99.90;;;;;;5077885;28;20115;-60
2021/12/16 16:20:42;;;;;;;13.18;6.85;;;7.60;99.90;;;;;;5076697;28;19926;-56
2021/12/16 16:23:10;;;;;;;13.68;6.68;;;7.60;99.90;;;;;;5079273;28;20044;-59
2021/12/16 16:25:37;;;;;;;12.43;6.70;;;7.60;99.90;;;;;;5078727;28;20047;-60
2021/12/16 16:28:05;;;;;;;11.82;7.18;;;7.50;99.90;;;;;;5080715;28;20048;-59
2021/12/16 16:30:31;;;;;;;16.00;8.13;;;7.50;99.90;;;;;;5078252;28;20063;-61
2021/12/16 16:33:08;;;;;;;15.20;7.55;;;7.50;99.90;;;;;;5079941;28;20044;-62
2021/12/16 16:35:36;;;;;;;;;;;7.50;99.90;;;;;;5078586;28;20135;-61
2021/12/16 16:38:15;;;;;;;13.35;6.47;;;7.50;99.90;;;;;;5086663;28;19920;-61
2021/12/16 16:40:44;;;;;;;16.15;7.78;;;7.50;99.90;;;;;;5065779;28;20036;-62
2021/12/16 16:43:16;;;;;;;14.80;8.02;;;7.50;99.90;;;;;;5083717;28;20098;-61
2021/12/16 16:45:44;;;;;;;13.27;7.45;;;7.50;99.90;;;;;;5074341;28;20557;-63
2021/12/16 16:48:27;;;;;;;18.92;8.98;;;7.50;99.90;;;;;;5078450;28;20054;-62
2021/12/16 16:51:05;;;;;;;19.80;8.68;;;7.50;99.90;;;;;;5075857;28;20040;-59
2021/12/16 16:53:31;;;;;;;12.63;6.60;;;7.50;99.90;;;;;;5073848;28;20438;-61
2021/12/16 16:55:57;;;;;;;18.48;9.35;;;7.50;99.90;;;;;;5065829;28;20044;-58